sensor_id;sensor_type;location;lat;lon;timestamp;P1;durP1;ratioP1;P2;durP2;ratioP2
80870;SDS011;70296;49.226;-122.884;2023-10-31T00:00:17;10.80;;;5.97;;
80870;SDS011;70296;49.226;-122.884;2023-10-31T00:02:43;7.90;;;4.78;;
80870;SDS011;70296;49.226;-122.884;2023-10-31T00:05:10;13.15;;;4.93;;
80870;SDS011;70296;49.226;-122.884;2023-10-31T00:07:36;10.88;;;5.38;;
80870;SDS011;70296;49.226;-122.884;2023-10-31T00:10:02;9.93;;;4.90;;
80870;SDS011;70296;49.226;-122.884;2023-10-31T00:12:30;9.93;;;5.10;;
80870;SDS011;70296;49.226;-122.884;2023-10-31T00:14:59;12.35;;;5.30;;
80870;SDS011;70296;49.226;-122.884;2023-10-31T00:17:25;10.40;;;5.78;;
80870;SDS011;70296;49.226;-122.884;2023-10-31T00:19:53;9.13;;;4.85;;
80870;SDS011;70296;49.226;-122.884;2023-10-31T00:22:20;12.63;;;5.47;;
80870;SDS011;70296;49.226;-122.884;2023-10-31T00:24:46;10.45;;;5.28;;
80870;SDS011;70296;49.226;-122.884;2023-10-31T00:27:12;66.30;;;11.18;;
80870;SDS011;70296;49.226;-122.884;2023-10-31T00:29:40;13.90;;;5.30;;
80870;SDS011;70296;49.226;-122.884;2023-10-31T00:32:06;12.15;;;5.47;;
80870;SDS011;70296;49.226;-122.884;2023-10-31T00:34:33;13.02;;;5.55;;
80870;SDS011;70296;49.226;-122.884;2023-10-31T00:36:59;10.38;;;5.20;;
80870;SDS011;70296;49.226;-122.884;2023-10-31T00:39:25;9.25;;;4.07;;
80870;SDS011;70296;49.226;-122.884;2023-10-31T00:41:51;9.52;;;5.13;;
80870;SDS011;70296;49.226;-122.884;2023-10-31T00:44:18;8.55;;;3.95;;
80870;SDS011;70296;49.226;-122.884;2023-10-31T00:46:44;6.93;;;3.90;;
80870;SDS011;70296;49.226;-122.884;2023-10-31T00:49:12;8.13;;;4.93;;
80870;SDS011;70296;49.226;-122.884;2023-10-31T00:51:38;11.15;;;4.57;;
80870;SDS011;70296;49.226;-122.884;2023-10-31T00:54:05;9.32;;;3.83;;
80870;SDS011;70296;49.226;-122.884;2023-10-31T00:56:32;7.65;;;4.45;;
80870;SDS011;70296;49.226;-122.884;2023-10-31T00:59:00;9.48;;;4.95;;
80870;SDS011;70296;49.226;-122.884;2023-10-31T01:01:26;10.85;;;4.88;;
80870;SDS011;70296;49.226;-122.884;2023-10-31T01:03:53;8.68;;;4.68;;
80870;SDS011;70296;49.226;-122.884;2023-10-31T01:06:19;14.82;;;6.50;;
80870;SDS011;70296;49.226;-122.884;2023-10-31T01:08:46;19.27;;;6.13;;
80870;SDS011;70296;49.226;-122.884;2023-10-31T01:11:13;8.65;;;4.72;;
80870;SDS011;70296;49.226;-122.884;2023-10-31T01:13:39;11.45;;;5.50;;
80870;SDS011;70296;49.226;-122.884;2023-10-31T01:16:05;11.50;;;4.47;;
80870;SDS011;70296;49.226;-122.884;2023-10-31T01:18:31;9.35;;;5.10;;
80870;SDS011;70296;49.226;-122.884;2023-10-31T01:20:59;12.40;;;4.68;;
80870;SDS011;70296;49.226;-122.884;2023-10-31T01:23:27;9.93;;;5.28;;
80870;SDS011;70296;49.226;-122.884;2023-10-31T01:25:53;9.93;;;4.22;;
80870;SDS011;70296;49.226;-122.884;2023-10-31T01:28:20;13.10;;;5.13;;
80870;SDS011;70296;49.226;-122.884;2023-10-31T01:30:47;13.15;;;5.55;;
80870;SDS011;70296;49.226;-122.884;2023-10-31T01:33:13;13.60;;;4.95;;
80870;SDS011;70296;49.226;-122.884;2023-10-31T01:35:41;11.05;;;6.28;;
80870;SDS011;70296;49.226;-122.884;2023-10-31T01:38:07;11.77;;;5.80;;
80870;SDS011;70296;49.226;-122.884;2023-10-31T01:40:33;16.30;;;6.60;;
80870;SDS011;70296;49.226;-122.884;2023-10-31T01:43:00;11.90;;;5.50;;
80870;SDS011;70296;49.226;-122.884;2023-10-31T01:45:26;13.07;;;5.57;;
80870;SDS011;70296;49.226;-122.884;2023-10-31T01:47:53;12.45;;;6.28;;
80870;SDS011;70296;49.226;-122.884;2023-10-31T01:50:19;13.98;;;6.22;;
80870;SDS011;70296;49.226;-122.884;2023-10-31T01:52:47;12.73;;;5.45;;
80870;SDS011;70296;49.226;-122.884;2023-10-31T01:55:13;10.98;;;5.20;;
80870;SDS011;70296;49.226;-122.884;2023-10-31T01:57:40;14.45;;;6.28;;
80870;SDS011;70296;49.226;-122.884;2023-10-31T02:00:07;12.73;;;5.45;;
80870;SDS011;70296;49.226;-122.884;2023-10-31T02:02:34;18.40;;;5.93;;
80870;SDS011;70296;49.226;-122.884;2023-10-31T02:05:01;12.73;;;6.03;;
80870;SDS011;70296;49.226;-122.884;2023-10-31T02:07:29;14.63;;;4.90;;
80870;SDS011;70296;49.226;-122.884;2023-10-31T02:09:55;11.98;;;5.07;;
80870;SDS011;70296;49.226;-122.884;2023-10-31T02:12:35;11.30;;;5.40;;
80870;SDS011;70296;49.226;-122.884;2023-10-31T02:15:03;9.85;;;5.18;;
80870;SDS011;70296;49.226;-122.884;2023-10-31T02:17:30;13.77;;;5.72;;
80870;SDS011;70296;49.226;-122.884;2023-10-31T02:19:57;10.38;;;5.13;;
80870;SDS011;70296;49.226;-122.884;2023-10-31T02:22:23;12.30;;;5.63;;
80870;SDS011;70296;49.226;-122.884;2023-10-31T02:24:49;10.30;;;4.65;;
80870;SDS011;70296;49.226;-122.884;2023-10-31T02:27:15;11.02;;;5.25;;
80870;SDS011;70296;49.226;-122.884;2023-10-31T02:29:43;10.20;;;4.78;;
80870;SDS011;70296;49.226;-122.884;2023-10-31T02:32:09;8.90;;;5.30;;
80870;SDS011;70296;49.226;-122.884;2023-10-31T02:34:38;11.25;;;4.20;;
80870;SDS011;70296;49.226;-122.884;2023-10-31T02:37:06;9.13;;;4.70;;
80870;SDS011;70296;49.226;-122.884;2023-10-31T02:39:32;11.25;;;4.60;;
80870;SDS011;70296;49.226;-122.884;2023-10-31T02:41:58;11.13;;;5.40;;
80870;SDS011;70296;49.226;-122.884;2023-10-31T02:44:26;9.10;;;4.68;;
80870;SDS011;70296;49.226;-122.884;2023-10-31T02:46:52;13.10;;;5.35;;
80870;SDS011;70296;49.226;-122.884;2023-10-31T02:49:20;9.40;;;5.32;;
80870;SDS011;70296;49.226;-122.884;2023-10-31T02:51:47;10.52;;;4.40;;
80870;SDS011;70296;49.226;-122.884;2023-10-31T02:54:16;7.05;;;4.40;;
80870;SDS011;70296;49.226;-122.884;2023-10-31T02:56:42;10.18;;;4.90;;
80870;SDS011;70296;49.226;-122.884;2023-10-31T02:59:10;10.52;;;5.13;;
80870;SDS011;70296;49.226;-122.884;2023-10-31T03:01:37;12.80;;;5.40;;
80870;SDS011;70296;49.226;-122.884;2023-10-31T03:04:04;15.80;;;4.97;;
80870;SDS011;70296;49.226;-122.884;2023-10-31T03:06:30;12.77;;;5.32;;
80870;SDS011;70296;49.226;-122.884;2023-10-31T03:08:58;7.43;;;5.50;;
80870;SDS011;70296;49.226;-122.884;2023-10-31T03:11:25;8.80;;;5.10;;
80870;SDS011;70296;49.226;-122.884;2023-10-31T03:13:52;12.10;;;5.45;;
80870;SDS011;70296;49.226;-122.884;2023-10-31T03:16:24;15.23;;;5.30;;
80870;SDS011;70296;49.226;-122.884;2023-10-31T03:18:51;10.75;;;5.28;;
80870;SDS011;70296;49.226;-122.884;2023-10-31T03:21:17;13.55;;;5.50;;
80870;SDS011;70296;49.226;-122.884;2023-10-31T03:23:47;9.13;;;4.90;;
80870;SDS011;70296;49.226;-122.884;2023-10-31T03:26:18;10.00;;;5.32;;
80870;SDS011;70296;49.226;-122.884;2023-10-31T03:28:46;12.02;;;5.18;;
80870;SDS011;70296;49.226;-122.884;2023-10-31T03:31:13;8.10;;;4.80;;
80870;SDS011;70296;49.226;-122.884;2023-10-31T03:33:39;9.98;;;4.85;;
80870;SDS011;70296;49.226;-122.884;2023-10-31T03:36:08;10.68;;;4.40;;
80870;SDS011;70296;49.226;-122.884;2023-10-31T03:38:35;8.93;;;4.30;;
80870;SDS011;70296;49.226;-122.884;2023-10-31T03:41:01;8.55;;;4.88;;
80870;SDS011;70296;49.226;-122.884;2023-10-31T03:43:28;8.85;;;4.50;;
80870;SDS011;70296;49.226;-122.884;2023-10-31T03:45:54;11.25;;;4.88;;
80870;SDS011;70296;49.226;-122.884;2023-10-31T03:48:25;8.70;;;4.40;;
80870;SDS011;70296;49.226;-122.884;2023-10-31T03:50:51;8.63;;;4.43;;
80870;SDS011;70296;49.226;-122.884;2023-10-31T03:53:18;7.70;;;3.75;;
80870;SDS011;70296;49.226;-122.884;2023-10-31T03:55:44;8.55;;;4.45;;
80870;SDS011;70296;49.226;-122.884;2023-10-31T03:58:10;9.88;;;3.95;;
80870;SDS011;70296;49.226;-122.884;2023-10-31T04:00:36;9.07;;;3.80;;
80870;SDS011;70296;49.226;-122.884;2023-10-31T04:03:05;5.65;;;3.53;;
80870;SDS011;70296;49.226;-122.884;2023-10-31T04:05:31;7.65;;;4.10;;
80870;SDS011;70296;49.226;-122.884;2023-10-31T04:07:58;10.77;;;4.28;;
80870;SDS011;70296;49.226;-122.884;2023-10-31T04:10:25;6.88;;;3.95;;
80870;SDS011;70296;49.226;-122.884;2023-10-31T04:12:52;7.93;;;3.70;;
80870;SDS011;70296;49.226;-122.884;2023-10-31T04:15:22;6.90;;;3.92;;
80870;SDS011;70296;49.226;-122.884;2023-10-31T04:17:48;7.80;;;3.72;;
80870;SDS011;70296;49.226;-122.884;2023-10-31T04:20:15;6.78;;;4.10;;
80870;SDS011;70296;49.226;-122.884;2023-10-31T04:22:41;7.57;;;3.55;;
80870;SDS011;70296;49.226;-122.884;2023-10-31T04:25:07;8.13;;;4.05;;
80870;SDS011;70296;49.226;-122.884;2023-10-31T04:27:34;7.50;;;4.10;;
80870;SDS011;70296;49.226;-122.884;2023-10-31T04:30:02;10.65;;;4.15;;
80870;SDS011;70296;49.226;-122.884;2023-10-31T04:32:28;9.43;;;4.00;;
80870;SDS011;70296;49.226;-122.884;2023-10-31T04:34:55;8.77;;;4.13;;
80870;SDS011;70296;49.226;-122.884;2023-10-31T04:37:22;8.90;;;4.07;;
80870;SDS011;70296;49.226;-122.884;2023-10-31T04:39:48;8.85;;;3.78;;
80870;SDS011;70296;49.226;-122.884;2023-10-31T04:42:15;6.50;;;3.88;;
80870;SDS011;70296;49.226;-122.884;2023-10-31T04:44:45;7.72;;;3.97;;
80870;SDS011;70296;49.226;-122.884;2023-10-31T04:47:12;8.75;;;4.45;;
80870;SDS011;70296;49.226;-122.884;2023-10-31T04:49:39;9.55;;;4.05;;
80870;SDS011;70296;49.226;-122.884;2023-10-31T04:52:06;8.45;;;3.92;;
80870;SDS011;70296;49.226;-122.884;2023-10-31T04:54:32;7.95;;;4.05;;
80870;SDS011;70296;49.226;-122.884;2023-10-31T04:56:58;9.13;;;3.67;;
80870;SDS011;70296;49.226;-122.884;2023-10-31T04:59:26;7.15;;;3.50;;
80870;SDS011;70296;49.226;-122.884;2023-10-31T05:01:52;7.40;;;4.10;;
80870;SDS011;70296;49.226;-122.884;2023-10-31T05:04:20;5.78;;;3.35;;
80870;SDS011;70296;49.226;-122.884;2023-10-31T05:06:47;7.05;;;4.03;;
80870;SDS011;70296;49.226;-122.884;2023-10-31T05:09:14;6.18;;;3.35;;
80870;SDS011;70296;49.226;-122.884;2023-10-31T05:11:40;8.20;;;3.65;;
80870;SDS011;70296;49.226;-122.884;2023-10-31T05:14:08;6.38;;;3.08;;
80870;SDS011;70296;49.226;-122.884;2023-10-31T05:16:40;11.25;;;4.35;;
80870;SDS011;70296;49.226;-122.884;2023-10-31T05:19:07;7.97;;;3.45;;
80870;SDS011;70296;49.226;-122.884;2023-10-31T05:21:33;6.75;;;3.53;;
80870;SDS011;70296;49.226;-122.884;2023-10-31T05:24:00;5.72;;;3.38;;
80870;SDS011;70296;49.226;-122.884;2023-10-31T05:26:29;6.10;;;3.33;;
80870;SDS011;70296;49.226;-122.884;2023-10-31T05:28:57;10.23;;;4.40;;
80870;SDS011;70296;49.226;-122.884;2023-10-31T05:31:26;6.38;;;3.25;;
80870;SDS011;70296;49.226;-122.884;2023-10-31T05:33:52;8.60;;;3.63;;
80870;SDS011;70296;49.226;-122.884;2023-10-31T05:36:24;9.15;;;4.05;;
80870;SDS011;70296;49.226;-122.884;2023-10-31T05:38:51;7.20;;;4.00;;
80870;SDS011;70296;49.226;-122.884;2023-10-31T05:41:17;9.88;;;3.90;;
80870;SDS011;70296;49.226;-122.884;2023-10-31T05:43:43;9.52;;;3.70;;
80870;SDS011;70296;49.226;-122.884;2023-10-31T05:46:10;5.88;;;3.40;;
80870;SDS011;70296;49.226;-122.884;2023-10-31T05:48:39;7.10;;;3.95;;
80870;SDS011;70296;49.226;-122.884;2023-10-31T05:51:13;6.57;;;3.95;;
80870;SDS011;70296;49.226;-122.884;2023-10-31T05:53:43;6.28;;;3.05;;
80870;SDS011;70296;49.226;-122.884;2023-10-31T05:56:11;6.90;;;3.60;;
80870;SDS011;70296;49.226;-122.884;2023-10-31T05:58:38;7.85;;;3.75;;
80870;SDS011;70296;49.226;-122.884;2023-10-31T06:01:05;8.57;;;4.00;;
80870;SDS011;70296;49.226;-122.884;2023-10-31T06:03:32;9.63;;;3.45;;
80870;SDS011;70296;49.226;-122.884;2023-10-31T06:05:58;6.38;;;3.45;;
80870;SDS011;70296;49.226;-122.884;2023-10-31T06:08:25;7.03;;;3.70;;
80870;SDS011;70296;49.226;-122.884;2023-10-31T06:10:55;8.98;;;4.00;;
80870;SDS011;70296;49.226;-122.884;2023-10-31T06:13:21;8.10;;;4.32;;
80870;SDS011;70296;49.226;-122.884;2023-10-31T06:15:51;7.35;;;3.50;;
80870;SDS011;70296;49.226;-122.884;2023-10-31T06:18:17;7.10;;;3.45;;
80870;SDS011;70296;49.226;-122.884;2023-10-31T06:20:43;7.57;;;3.75;;
80870;SDS011;70296;49.226;-122.884;2023-10-31T06:23:10;7.97;;;4.15;;
80870;SDS011;70296;49.226;-122.884;2023-10-31T06:25:36;7.88;;;3.83;;
80870;SDS011;70296;49.226;-122.884;2023-10-31T06:28:03;8.68;;;4.45;;
80870;SDS011;70296;49.226;-122.884;2023-10-31T06:30:30;7.18;;;3.85;;
80870;SDS011;70296;49.226;-122.884;2023-10-31T06:32:56;7.75;;;3.67;;
80870;SDS011;70296;49.226;-122.884;2023-10-31T06:35:25;7.30;;;3.58;;
80870;SDS011;70296;49.226;-122.884;2023-10-31T06:37:52;7.57;;;3.38;;
80870;SDS011;70296;49.226;-122.884;2023-10-31T06:40:19;5.63;;;3.20;;
80870;SDS011;70296;49.226;-122.884;2023-10-31T06:42:45;6.55;;;3.60;;
80870;SDS011;70296;49.226;-122.884;2023-10-31T06:45:13;7.82;;;3.45;;
80870;SDS011;70296;49.226;-122.884;2023-10-31T06:47:39;9.43;;;3.50;;
80870;SDS011;70296;49.226;-122.884;2023-10-31T06:50:07;9.98;;;3.88;;
80870;SDS011;70296;49.226;-122.884;2023-10-31T06:52:34;6.97;;;3.53;;
80870;SDS011;70296;49.226;-122.884;2023-10-31T06:55:01;7.75;;;3.58;;
80870;SDS011;70296;49.226;-122.884;2023-10-31T06:57:29;8.48;;;4.10;;
80870;SDS011;70296;49.226;-122.884;2023-10-31T06:59:55;8.73;;;3.78;;
80870;SDS011;70296;49.226;-122.884;2023-10-31T07:02:21;7.03;;;3.63;;
80870;SDS011;70296;49.226;-122.884;2023-10-31T07:04:49;8.73;;;3.25;;
80870;SDS011;70296;49.226;-122.884;2023-10-31T07:07:17;6.55;;;3.78;;
80870;SDS011;70296;49.226;-122.884;2023-10-31T07:09:45;6.25;;;3.30;;
80870;SDS011;70296;49.226;-122.884;2023-10-31T07:12:11;7.15;;;3.97;;
80870;SDS011;70296;49.226;-122.884;2023-10-31T07:14:39;7.80;;;3.10;;
80870;SDS011;70296;49.226;-122.884;2023-10-31T07:17:05;6.60;;;3.58;;
80870;SDS011;70296;49.226;-122.884;2023-10-31T07:19:31;6.68;;;3.70;;
80870;SDS011;70296;49.226;-122.884;2023-10-31T07:21:57;6.82;;;2.88;;
80870;SDS011;70296;49.226;-122.884;2023-10-31T07:24:24;6.55;;;3.58;;
80870;SDS011;70296;49.226;-122.884;2023-10-31T07:26:52;6.78;;;3.47;;
80870;SDS011;70296;49.226;-122.884;2023-10-31T07:29:19;10.65;;;3.80;;
80870;SDS011;70296;49.226;-122.884;2023-10-31T07:31:45;7.18;;;3.45;;
80870;SDS011;70296;49.226;-122.884;2023-10-31T07:34:11;7.30;;;3.08;;
80870;SDS011;70296;49.226;-122.884;2023-10-31T07:36:37;6.30;;;3.10;;
80870;SDS011;70296;49.226;-122.884;2023-10-31T07:39:06;6.00;;;2.95;;
80870;SDS011;70296;49.226;-122.884;2023-10-31T07:41:34;6.13;;;3.05;;
80870;SDS011;70296;49.226;-122.884;2023-10-31T07:44:00;5.95;;;3.20;;
80870;SDS011;70296;49.226;-122.884;2023-10-31T07:46:28;7.63;;;3.55;;
80870;SDS011;70296;49.226;-122.884;2023-10-31T07:48:54;6.13;;;3.33;;
80870;SDS011;70296;49.226;-122.884;2023-10-31T07:51:21;4.68;;;2.92;;
80870;SDS011;70296;49.226;-122.884;2023-10-31T07:53:47;5.07;;;3.05;;
80870;SDS011;70296;49.226;-122.884;2023-10-31T07:56:16;4.05;;;3.20;;
80870;SDS011;70296;49.226;-122.884;2023-10-31T07:58:50;6.07;;;3.72;;
80870;SDS011;70296;49.226;-122.884;2023-10-31T08:01:18;16.17;;;4.25;;
80870;SDS011;70296;49.226;-122.884;2023-10-31T08:03:45;6.45;;;2.90;;
80870;SDS011;70296;49.226;-122.884;2023-10-31T08:06:12;6.88;;;3.83;;
80870;SDS011;70296;49.226;-122.884;2023-10-31T08:08:39;7.95;;;3.42;;
80870;SDS011;70296;49.226;-122.884;2023-10-31T08:11:08;6.28;;;3.20;;
80870;SDS011;70296;49.226;-122.884;2023-10-31T08:13:38;6.28;;;3.40;;
80870;SDS011;70296;49.226;-122.884;2023-10-31T08:16:05;5.80;;;2.78;;
80870;SDS011;70296;49.226;-122.884;2023-10-31T08:18:32;6.47;;;2.85;;
80870;SDS011;70296;49.226;-122.884;2023-10-31T08:20:58;6.70;;;3.00;;
80870;SDS011;70296;49.226;-122.884;2023-10-31T08:23:25;5.30;;;3.05;;
80870;SDS011;70296;49.226;-122.884;2023-10-31T08:25:51;4.68;;;2.65;;
80870;SDS011;70296;49.226;-122.884;2023-10-31T08:28:19;6.07;;;2.90;;
80870;SDS011;70296;49.226;-122.884;2023-10-31T08:30:46;5.28;;;3.15;;
80870;SDS011;70296;49.226;-122.884;2023-10-31T08:33:13;5.00;;;3.00;;
80870;SDS011;70296;49.226;-122.884;2023-10-31T08:35:39;6.75;;;2.72;;
80870;SDS011;70296;49.226;-122.884;2023-10-31T08:38:06;6.00;;;2.97;;
80870;SDS011;70296;49.226;-122.884;2023-10-31T08:40:33;6.05;;;3.20;;
80870;SDS011;70296;49.226;-122.884;2023-10-31T08:42:59;5.90;;;2.92;;
80870;SDS011;70296;49.226;-122.884;2023-10-31T08:45:26;6.60;;;2.90;;
80870;SDS011;70296;49.226;-122.884;2023-10-31T08:47:52;5.00;;;3.10;;
80870;SDS011;70296;49.226;-122.884;2023-10-31T08:50:18;5.10;;;2.70;;
80870;SDS011;70296;49.226;-122.884;2023-10-31T08:52:44;5.53;;;2.70;;
80870;SDS011;70296;49.226;-122.884;2023-10-31T08:55:10;6.78;;;2.65;;
80870;SDS011;70296;49.226;-122.884;2023-10-31T08:57:37;4.55;;;2.80;;
80870;SDS011;70296;49.226;-122.884;2023-10-31T09:00:03;5.85;;;2.78;;
80870;SDS011;70296;49.226;-122.884;2023-10-31T09:02:30;5.90;;;2.97;;
80870;SDS011;70296;49.226;-122.884;2023-10-31T09:04:56;5.82;;;2.80;;
80870;SDS011;70296;49.226;-122.884;2023-10-31T09:07:22;6.15;;;3.00;;
80870;SDS011;70296;49.226;-122.884;2023-10-31T09:09:48;7.25;;;3.03;;
80870;SDS011;70296;49.226;-122.884;2023-10-31T09:12:15;4.50;;;2.20;;
80870;SDS011;70296;49.226;-122.884;2023-10-31T09:14:41;5.38;;;2.85;;
80870;SDS011;70296;49.226;-122.884;2023-10-31T09:17:07;5.03;;;2.92;;
80870;SDS011;70296;49.226;-122.884;2023-10-31T09:19:33;4.63;;;2.80;;
80870;SDS011;70296;49.226;-122.884;2023-10-31T09:22:01;8.93;;;3.65;;
80870;SDS011;70296;49.226;-122.884;2023-10-31T09:24:27;4.43;;;2.72;;
80870;SDS011;70296;49.226;-122.884;2023-10-31T09:26:53;7.50;;;2.90;;
80870;SDS011;70296;49.226;-122.884;2023-10-31T09:29:20;5.13;;;2.58;;
80870;SDS011;70296;49.226;-122.884;2023-10-31T09:31:46;5.63;;;2.75;;
80870;SDS011;70296;49.226;-122.884;2023-10-31T09:34:13;4.90;;;2.72;;
80870;SDS011;70296;49.226;-122.884;2023-10-31T09:36:39;5.90;;;2.70;;
80870;SDS011;70296;49.226;-122.884;2023-10-31T09:39:06;5.85;;;2.50;;
80870;SDS011;70296;49.226;-122.884;2023-10-31T09:41:32;6.22;;;3.17;;
80870;SDS011;70296;49.226;-122.884;2023-10-31T09:43:59;8.05;;;3.10;;
80870;SDS011;70296;49.226;-122.884;2023-10-31T09:46:30;3.95;;;2.60;;
80870;SDS011;70296;49.226;-122.884;2023-10-31T09:48:57;6.18;;;2.90;;
80870;SDS011;70296;49.226;-122.884;2023-10-31T09:51:23;5.70;;;3.22;;
80870;SDS011;70296;49.226;-122.884;2023-10-31T09:53:50;6.38;;;2.80;;
80870;SDS011;70296;49.226;-122.884;2023-10-31T09:56:21;5.82;;;3.60;;
80870;SDS011;70296;49.226;-122.884;2023-10-31T09:58:50;5.18;;;2.88;;
80870;SDS011;70296;49.226;-122.884;2023-10-31T10:01:17;5.32;;;2.80;;
80870;SDS011;70296;49.226;-122.884;2023-10-31T10:03:43;7.40;;;2.83;;
80870;SDS011;70296;49.226;-122.884;2023-10-31T10:06:10;5.25;;;2.92;;
80870;SDS011;70296;49.226;-122.884;2023-10-31T10:08:37;6.40;;;2.33;;
80870;SDS011;70296;49.226;-122.884;2023-10-31T10:11:04;5.43;;;2.33;;
80870;SDS011;70296;49.226;-122.884;2023-10-31T10:13:32;5.22;;;3.03;;
80870;SDS011;70296;49.226;-122.884;2023-10-31T10:15:59;5.18;;;2.30;;
80870;SDS011;70296;49.226;-122.884;2023-10-31T10:18:26;5.45;;;2.63;;
80870;SDS011;70296;49.226;-122.884;2023-10-31T10:20:59;5.30;;;2.83;;
80870;SDS011;70296;49.226;-122.884;2023-10-31T10:25:53;5.45;;;2.78;;
80870;SDS011;70296;49.226;-122.884;2023-10-31T10:28:20;6.72;;;2.70;;
80870;SDS011;70296;49.226;-122.884;2023-10-31T10:30:47;5.43;;;2.75;;
80870;SDS011;70296;49.226;-122.884;2023-10-31T10:33:17;6.85;;;2.75;;
80870;SDS011;70296;49.226;-122.884;2023-10-31T10:35:45;5.88;;;2.78;;
80870;SDS011;70296;49.226;-122.884;2023-10-31T10:38:12;5.28;;;2.75;;
80870;SDS011;70296;49.226;-122.884;2023-10-31T10:40:40;8.50;;;2.80;;
80870;SDS011;70296;49.226;-122.884;2023-10-31T10:43:20;4.88;;;2.60;;
80870;SDS011;70296;49.226;-122.884;2023-10-31T10:45:49;9.50;;;2.97;;
80870;SDS011;70296;49.226;-122.884;2023-10-31T10:48:24;5.88;;;2.97;;
80870;SDS011;70296;49.226;-122.884;2023-10-31T10:54:05;5.50;;;2.75;;
80870;SDS011;70296;49.226;-122.884;2023-10-31T10:56:42;5.47;;;2.60;;
80870;SDS011;70296;49.226;-122.884;2023-10-31T10:59:21;5.80;;;2.85;;
80870;SDS011;70296;49.226;-122.884;2023-10-31T11:01:56;4.43;;;3.03;;
80870;SDS011;70296;49.226;-122.884;2023-10-31T11:04:25;4.53;;;2.65;;
80870;SDS011;70296;49.226;-122.884;2023-10-31T11:06:52;6.75;;;3.38;;
80870;SDS011;70296;49.226;-122.884;2023-10-31T11:09:18;7.88;;;3.60;;
80870;SDS011;70296;49.226;-122.884;2023-10-31T11:11:45;5.28;;;3.15;;
80870;SDS011;70296;49.226;-122.884;2023-10-31T11:14:15;9.43;;;3.38;;
80870;SDS011;70296;49.226;-122.884;2023-10-31T11:16:48;7.05;;;3.25;;
80870;SDS011;70296;49.226;-122.884;2023-10-31T11:19:17;5.68;;;2.70;;
80870;SDS011;70296;49.226;-122.884;2023-10-31T11:21:59;6.38;;;3.03;;
80870;SDS011;70296;49.226;-122.884;2023-10-31T11:24:36;6.13;;;2.92;;
80870;SDS011;70296;49.226;-122.884;2023-10-31T11:27:04;5.75;;;2.28;;
80870;SDS011;70296;49.226;-122.884;2023-10-31T11:29:33;7.20;;;3.67;;
80870;SDS011;70296;49.226;-122.884;2023-10-31T11:32:00;8.70;;;3.10;;
80870;SDS011;70296;49.226;-122.884;2023-10-31T11:34:27;7.28;;;3.92;;
80870;SDS011;70296;49.226;-122.884;2023-10-31T11:36:53;4.80;;;3.22;;
80870;SDS011;70296;49.226;-122.884;2023-10-31T11:42:43;8.13;;;3.30;;
80870;SDS011;70296;49.226;-122.884;2023-10-31T11:45:12;5.30;;;2.95;;
80870;SDS011;70296;49.226;-122.884;2023-10-31T11:47:50;5.15;;;3.35;;
80870;SDS011;70296;49.226;-122.884;2023-10-31T11:50:17;6.72;;;3.42;;
80870;SDS011;70296;49.226;-122.884;2023-10-31T11:52:43;5.45;;;3.10;;
80870;SDS011;70296;49.226;-122.884;2023-10-31T11:55:10;8.50;;;3.65;;
80870;SDS011;70296;49.226;-122.884;2023-10-31T11:57:37;5.90;;;3.20;;
80870;SDS011;70296;49.226;-122.884;2023-10-31T12:00:04;5.88;;;3.20;;
80870;SDS011;70296;49.226;-122.884;2023-10-31T12:02:32;7.03;;;3.30;;
80870;SDS011;70296;49.226;-122.884;2023-10-31T12:07:41;13.98;;;3.30;;
80870;SDS011;70296;49.226;-122.884;2023-10-31T12:10:08;5.47;;;2.78;;
80870;SDS011;70296;49.226;-122.884;2023-10-31T12:12:35;4.43;;;2.90;;
80870;SDS011;70296;49.226;-122.884;2023-10-31T12:15:05;6.15;;;2.58;;
80870;SDS011;70296;49.226;-122.884;2023-10-31T12:17:35;8.00;;;2.50;;
80870;SDS011;70296;49.226;-122.884;2023-10-31T12:20:05;5.85;;;2.50;;
80870;SDS011;70296;49.226;-122.884;2023-10-31T12:22:35;10.57;;;2.90;;
80870;SDS011;70296;49.226;-122.884;2023-10-31T12:25:04;16.52;;;4.53;;
80870;SDS011;70296;49.226;-122.884;2023-10-31T12:27:45;8.45;;;2.85;;
80870;SDS011;70296;49.226;-122.884;2023-10-31T12:30:13;7.97;;;3.03;;
80870;SDS011;70296;49.226;-122.884;2023-10-31T12:32:42;14.63;;;4.18;;
80870;SDS011;70296;49.226;-122.884;2023-10-31T12:35:12;17.75;;;5.95;;
80870;SDS011;70296;49.226;-122.884;2023-10-31T12:37:44;16.15;;;4.80;;
80870;SDS011;70296;49.226;-122.884;2023-10-31T12:40:16;6.78;;;3.33;;
80870;SDS011;70296;49.226;-122.884;2023-10-31T12:42:43;16.23;;;4.45;;
80870;SDS011;70296;49.226;-122.884;2023-10-31T12:45:11;12.32;;;4.35;;
80870;SDS011;70296;49.226;-122.884;2023-10-31T12:47:37;5.93;;;3.10;;
80870;SDS011;70296;49.226;-122.884;2023-10-31T12:50:07;9.23;;;3.35;;
80870;SDS011;70296;49.226;-122.884;2023-10-31T12:55:14;13.40;;;3.65;;
80870;SDS011;70296;49.226;-122.884;2023-10-31T12:58:03;8.68;;;3.60;;
80870;SDS011;70296;49.226;-122.884;2023-10-31T13:00:30;25.08;;;5.78;;
80870;SDS011;70296;49.226;-122.884;2023-10-31T13:03:04;14.95;;;5.15;;
80870;SDS011;70296;49.226;-122.884;2023-10-31T13:05:31;20.27;;;4.68;;
80870;SDS011;70296;49.226;-122.884;2023-10-31T13:08:13;39.05;;;8.63;;
80870;SDS011;70296;49.226;-122.884;2023-10-31T13:10:41;7.70;;;3.00;;
80870;SDS011;70296;49.226;-122.884;2023-10-31T13:13:08;6.22;;;3.00;;
80870;SDS011;70296;49.226;-122.884;2023-10-31T13:15:34;4.25;;;2.80;;
80870;SDS011;70296;49.226;-122.884;2023-10-31T13:18:03;5.75;;;2.92;;
80870;SDS011;70296;49.226;-122.884;2023-10-31T13:20:29;7.70;;;3.70;;
80870;SDS011;70296;49.226;-122.884;2023-10-31T13:22:57;7.32;;;3.88;;
80870;SDS011;70296;49.226;-122.884;2023-10-31T13:25:28;5.45;;;3.10;;
80870;SDS011;70296;49.226;-122.884;2023-10-31T13:27:56;6.88;;;2.95;;
80870;SDS011;70296;49.226;-122.884;2023-10-31T13:30:22;6.10;;;3.00;;
80870;SDS011;70296;49.226;-122.884;2023-10-31T13:32:52;8.30;;;3.50;;
80870;SDS011;70296;49.226;-122.884;2023-10-31T13:35:18;6.50;;;3.00;;
80870;SDS011;70296;49.226;-122.884;2023-10-31T13:37:45;5.78;;;3.05;;
80870;SDS011;70296;49.226;-122.884;2023-10-31T13:40:12;6.63;;;3.05;;
80870;SDS011;70296;49.226;-122.884;2023-10-31T13:42:38;7.03;;;2.90;;
80870;SDS011;70296;49.226;-122.884;2023-10-31T13:45:05;7.57;;;3.70;;
80870;SDS011;70296;49.226;-122.884;2023-10-31T13:47:32;8.40;;;4.13;;
80870;SDS011;70296;49.226;-122.884;2023-10-31T13:49:58;6.30;;;3.38;;
80870;SDS011;70296;49.226;-122.884;2023-10-31T13:52:24;5.93;;;3.40;;
80870;SDS011;70296;49.226;-122.884;2023-10-31T13:54:50;4.90;;;2.95;;
80870;SDS011;70296;49.226;-122.884;2023-10-31T13:57:16;6.32;;;2.72;;
80870;SDS011;70296;49.226;-122.884;2023-10-31T13:59:42;12.07;;;3.70;;
80870;SDS011;70296;49.226;-122.884;2023-10-31T14:02:09;7.85;;;3.92;;
80870;SDS011;70296;49.226;-122.884;2023-10-31T14:04:35;7.38;;;5.10;;
80870;SDS011;70296;49.226;-122.884;2023-10-31T14:07:03;6.40;;;3.90;;
80870;SDS011;70296;49.226;-122.884;2023-10-31T14:09:29;11.38;;;7.50;;
80870;SDS011;70296;49.226;-122.884;2023-10-31T14:11:56;11.43;;;4.80;;
80870;SDS011;70296;49.226;-122.884;2023-10-31T14:14:23;6.28;;;3.72;;
80870;SDS011;70296;49.226;-122.884;2023-10-31T14:16:51;5.05;;;2.95;;
80870;SDS011;70296;49.226;-122.884;2023-10-31T14:19:18;5.88;;;3.08;;
80870;SDS011;70296;49.226;-122.884;2023-10-31T14:21:44;4.88;;;3.30;;